Time;durP1;ratioP1;P1;durP2;ratioP2;P2;SDS_P1;SDS_P2;PMS_P1;PMS_P2;Temp;Humidity;BMP_temperature;BMP_pressure;BME280_temperature;BME280_humidity;BME280_pressure;Samples;Min_cycle;Max_cycle;Signal;HPM_P1;HPM_P2
2023/08/22 00:00:00;;;;;;;12.35;7.38;;;18.20;99.90;;;;;;5118207;28;20051;-60
2023/08/22 00:02:27;;;;;;;11.98;7.30;;;18.20;99.90;;;;;;5121025;28;20058;-60
2023/08/22 00:04:53;;;;;;;12.00;7.40;;;18.20;99.90;;;;;;5119133;28;20043;-60
2023/08/22 00:07:19;;;;;;;11.95;7.38;;;18.30;99.90;;;;;;5118906;28;20126;-60
2023/08/22 00:09:44;;;;;;;14.35;8.05;;;18.30;99.90;;;;;;5120574;28;20129;-60
2023/08/22 00:12:10;;;;;;;13.00;7.78;;;18.20;99.90;;;;;;5109561;28;20062;-60
2023/08/22 00:14:36;;;;;;;11.55;8.50;;;18.30;99.90;;;;;;5100272;28;20463;-60
2023/08/22 00:17:02;;;;;;;11.80;7.85;;;18.40;99.90;;;;;;5099227;28;20078;-61
2023/08/22 00:19:28;;;;;;;11.82;7.80;;;18.40;99.90;;;;;;5099509;28;20044;-60
2023/08/22 00:21:53;;;;;;;12.35;7.68;;;18.40;99.90;;;;;;5099098;28;20043;-60
2023/08/22 00:24:19;;;;;;;12.73;8.13;;;18.40;99.90;;;;;;5099821;28;20084;-60
2023/08/22 00:26:45;;;;;;;12.15;7.57;;;18.40;99.90;;;;;;5099983;28;20118;-60
2023/08/22 00:29:10;;;;;;;10.05;7.75;;;18.40;99.90;;;;;;5098885;28;20039;-61
2023/08/22 00:31:36;;;;;;;12.00;7.82;;;18.40;99.90;;;;;;5099914;28;20040;-60
2023/08/22 00:34:02;;;;;;;10.75;7.22;;;18.40;99.90;;;;;;5098725;28;20076;-60
2023/08/22 00:36:29;;;;;;;11.43;7.80;;;18.30;99.90;;;;;;5099972;28;20040;-60
2023/08/22 00:38:55;;;;;;;12.65;7.68;;;18.40;99.90;;;;;;5098745;28;20048;-60
2023/08/22 00:41:20;;;;;;;11.57;7.43;;;18.20;99.90;;;;;;5099867;28;20044;-60
2023/08/22 00:43:46;;;;;;;12.80;8.45;;;18.30;99.90;;;;;;5099597;28;20036;-60
2023/08/22 00:46:13;;;;;;;12.15;7.22;;;18.10;99.90;;;;;;5098906;28;20496;-60
2023/08/22 00:48:38;;;;;;;12.07;7.40;;;18.10;99.90;;;;;;5099241;28;20048;-60
2023/08/22 00:51:06;;;;;;;11.52;7.88;;;18.10;99.90;;;;;;5098418;28;20043;-61
2023/08/22 00:53:33;;;;;;;11.98;7.50;;;18.10;99.90;;;;;;5099823;28;20462;-60
2023/08/22 00:55:58;;;;;;;11.35;7.80;;;18.00;99.90;;;;;;5107981;28;20073;-60
2023/08/22 00:58:25;;;;;;;12.48;7.43;;;18.00;99.90;;;;;;5119949;28;20048;-60
2023/08/22 01:00:50;;;;;;;10.38;7.25;;;18.10;99.90;;;;;;5118260;28;20141;-60
2023/08/22 01:03:16;;;;;;;11.55;7.22;;;18.10;99.90;;;;;;5119090;28;20079;-60
2023/08/22 01:05:50;;;;;;;10.82;6.75;;;18.10;99.90;;;;;;5119747;28;20411;-60
2023/08/22 01:08:22;;;;;;;11.07;7.15;;;18.00;99.90;;;;;;5118668;28;20388;-60
2023/08/22 01:10:53;;;;;;;11.02;6.45;;;18.00;99.90;;;;;;5120064;28;20082;-61
2023/08/22 01:13:25;;;;;;;13.20;7.72;;;18.00;99.90;;;;;;5119007;28;20059;-60
2023/08/22 01:15:52;;;;;;;12.48;7.55;;;18.10;99.90;;;;;;5119504;28;20077;-60
2023/08/22 01:18:18;;;;;;;11.25;6.93;;;17.90;99.90;;;;;;5119268;28;20031;-60
2023/08/22 01:20:44;;;;;;;10.73;7.38;;;17.90;99.90;;;;;;5118695;28;20039;-60
2023/08/22 01:23:10;;;;;;;12.35;7.50;;;18.00;99.90;;;;;;5119518;28;20654;-62
2023/08/22 01:25:37;;;;;;;11.98;7.05;;;18.00;99.90;;;;;;5118370;28;20051;-60
2023/08/22 01:28:17;;;;;;;11.18;7.80;;;18.00;99.90;;;;;;5119974;28;20119;-59
2023/08/22 01:31:04;;;;;;;11.82;8.15;;;18.00;99.90;;;;;;5117361;28;20173;-59
2023/08/22 01:33:39;;;;;;;12.63;7.72;;;18.10;99.90;;;;;;5122773;28;20044;-60
2023/08/22 01:36:08;;;;;;;12.27;7.90;;;18.00;99.90;;;;;;5123725;28;20193;-59
2023/08/22 01:38:35;;;;;;;13.10;7.90;;;17.90;99.90;;;;;;5122401;28;20036;-60
2023/08/22 01:41:02;;;;;;;12.88;8.50;;;18.00;99.90;;;;;;5123753;28;20044;-60
2023/08/22 01:43:28;;;;;;;11.98;7.80;;;18.00;99.90;;;;;;5123165;28;20040;-60
2023/08/22 01:45:53;;;;;;;12.65;7.95;;;17.90;99.90;;;;;;5122971;28;20031;-60
2023/08/22 01:48:19;;;;;;;12.73;8.23;;;17.90;99.90;;;;;;5123205;28;20028;-60
2023/08/22 01:50:45;;;;;;;13.25;8.18;;;18.00;99.90;;;;;;5122265;28;20044;-60
2023/08/22 01:53:10;;;;;;;12.30;7.18;;;18.00;99.90;;;;;;5123407;27;20040;-60
2023/08/22 01:55:36;;;;;;;13.40;8.10;;;18.00;99.90;;;;;;5114477;28;20086;-60
2023/08/22 01:58:04;;;;;;;11.57;7.82;;;17.90;99.90;;;;;;5103149;28;20047;-60
2023/08/22 02:00:30;;;;;;;13.43;7.88;;;17.80;99.90;;;;;;5100517;28;20546;-60
2023/08/22 02:02:55;;;;;;;15.63;8.20;;;17.80;99.90;;;;;;5102597;28;20056;-60
2023/08/22 02:05:21;;;;;;;15.20;10.13;;;17.70;99.90;;;;;;5102290;28;20044;-59
2023/08/22 02:07:47;;;;;;;16.45;9.75;;;17.70;99.90;;;;;;5101607;28;20096;-60
2023/08/22 02:10:12;;;;;;;11.20;7.20;;;17.70;99.90;;;;;;5102614;28;20119;-60
2023/08/22 02:12:38;;;;;;;11.73;7.93;;;17.70;99.90;;;;;;5101687;28;20044;-60
2023/08/22 02:15:04;;;;;;;14.20;8.15;;;17.80;99.90;;;;;;5102819;28;20048;-60
2023/08/22 02:17:30;;;;;;;15.50;7.78;;;17.70;99.90;;;;;;5101548;28;20513;-64
2023/08/22 02:19:56;;;;;;;10.75;7.40;;;17.70;99.90;;;;;;5102078;28;20048;-60
2023/08/22 02:22:21;;;;;;;12.88;7.57;;;17.70;99.90;;;;;;5101310;28;20040;-60
2023/08/22 02:24:47;;;;;;;12.55;8.30;;;17.60;99.90;;;;;;5101309;28;20428;-60
2023/08/22 02:27:13;;;;;;;12.38;8.00;;;17.70;99.90;;;;;;5102278;28;20048;-60
2023/08/22 02:29:39;;;;;;;14.73;8.55;;;17.60;99.90;;;;;;5101151;28;20063;-61
2023/08/22 02:32:04;;;;;;;13.43;8.50;;;17.60;99.90;;;;;;5102425;28;20051;-59
2023/08/22 02:34:30;;;;;;;12.63;8.05;;;17.50;99.90;;;;;;5101361;28;20044;-60
2023/08/22 02:36:56;;;;;;;13.00;7.70;;;17.50;99.90;;;;;;5101944;28;20040;-59
2023/08/22 02:39:21;;;;;;;11.25;7.43;;;17.50;99.90;;;;;;5101756;28;20095;-59
2023/08/22 02:41:47;;;;;;;12.57;7.70;;;17.50;99.90;;;;;;5101094;28;20073;-60
2023/08/22 02:44:13;;;;;;;14.05;7.97;;;17.50;99.90;;;;;;5100944;28;20430;-60
2023/08/22 02:46:38;;;;;;;13.70;8.30;;;17.40;99.90;;;;;;5100718;28;20517;-60
2023/08/22 02:49:04;;;;;;;10.85;7.65;;;17.30;99.90;;;;;;5101463;28;20415;-60
2023/08/22 02:51:30;;;;;;;12.82;8.02;;;17.40;99.90;;;;;;5100864;28;20453;-60
2023/08/22 02:53:55;;;;;;;12.98;8.52;;;17.30;99.90;;;;;;5101703;28;20313;-60
2023/08/22 02:56:21;;;;;;;13.77;9.10;;;17.30;99.90;;;;;;5113971;28;20051;-60
2023/08/22 02:58:47;;;;;;;13.05;8.38;;;17.30;99.90;;;;;;5121653;27;20102;-60
2023/08/22 03:01:13;;;;;;;15.60;9.23;;;17.20;99.90;;;;;;5121553;28;20040;-59
2023/08/22 03:03:38;;;;;;;13.25;8.32;;;17.20;99.90;;;;;;5121007;28;20068;-60
2023/08/22 03:06:04;;;;;;;14.40;7.97;;;17.30;99.90;;;;;;5122066;28;20036;-60
2023/08/22 03:08:30;;;;;;;12.68;8.35;;;17.20;99.90;;;;;;5120844;28;20067;-60
2023/08/22 03:11:01;;;;;;;14.40;8.68;;;17.20;99.90;;;;;;5121871;28;20056;-60
2023/08/22 03:13:28;;;;;;;11.75;7.90;;;17.30;99.90;;;;;;5121365;28;20032;-60
2023/08/22 03:15:55;;;;;;;12.60;7.90;;;17.30;99.90;;;;;;5121341;28;20031;-60
2023/08/22 03:18:21;;;;;;;12.38;8.02;;;17.20;99.90;;;;;;5121407;28;20514;-60
2023/08/22 03:20:46;;;;;;;12.18;7.72;;;17.20;99.90;;;;;;5120432;28;20063;-60
2023/08/22 03:23:13;;;;;;;11.27;7.97;;;17.10;99.90;;;;;;5121561;28;20031;-60
2023/08/22 03:25:39;;;;;;;11.88;7.93;;;17.20;99.90;;;;;;5120508;28;20051;-60
2023/08/22 03:28:05;;;;;;;12.75;7.72;;;17.10;99.90;;;;;;5121529;28;20043;-60
2023/08/22 03:30:30;;;;;;;12.18;8.05;;;17.10;99.90;;;;;;5120878;28;20039;-60
2023/08/22 03:32:56;;;;;;;12.30;8.02;;;17.10;99.90;;;;;;5121170;28;20153;-60
2023/08/22 03:35:22;;;;;;;14.00;8.18;;;17.00;99.90;;;;;;5121318;28;20067;-60
2023/08/22 03:37:47;;;;;;;12.30;7.93;;;17.00;99.90;;;;;;5119952;28;20035;-60
2023/08/22 03:40:13;;;;;;;14.10;8.40;;;17.00;99.90;;;;;;5121235;28;20115;-60
2023/08/22 03:42:38;;;;;;;13.00;8.00;;;17.00;99.90;;;;;;5120243;28;20050;-60
2023/08/22 03:45:05;;;;;;;13.20;8.00;;;17.00;99.90;;;;;;5121692;28;20132;-60
2023/08/22 03:47:30;;;;;;;11.27;8.20;;;16.90;99.90;;;;;;5120506;28;20112;-59
2023/08/22 03:49:56;;;;;;;12.77;7.43;;;16.90;99.90;;;;;;5120445;28;20479;-60
2023/08/22 03:52:22;;;;;;;11.43;7.05;;;16.90;99.90;;;;;;5119506;28;20470;-60
2023/08/22 03:54:47;;;;;;;13.18;7.25;;;16.90;99.90;;;;;;5120024;28;20400;-60
2023/08/22 03:57:13;;;;;;;10.00;7.13;;;16.90;99.90;;;;;;5100977;28;20121;-60
2023/08/22 03:59:38;;;;;;;11.43;7.15;;;16.90;99.90;;;;;;5099413;28;20081;-60
2023/08/22 04:02:04;;;;;;;11.63;7.47;;;17.00;99.90;;;;;;5100316;28;20074;-63
2023/08/22 04:04:30;;;;;;;12.63;8.75;;;16.80;99.90;;;;;;5099521;28;20081;-60
2023/08/22 04:06:56;;;;;;;11.63;7.45;;;16.80;99.90;;;;;;5100285;28;20059;-60
2023/08/22 04:09:22;;;;;;;11.30;7.18;;;16.80;99.90;;;;;;5100263;28;20047;-59
2023/08/22 04:11:47;;;;;;;10.07;6.82;;;16.90;99.90;;;;;;5098017;28;20044;-59
2023/08/22 04:14:13;;;;;;;12.05;7.50;;;16.80;99.90;;;;;;5100398;28;20048;-59
2023/08/22 04:16:39;;;;;;;11.27;6.90;;;16.80;99.90;;;;;;5099021;28;20047;-59
2023/08/22 04:19:04;;;;;;;10.40;7.03;;;16.80;99.90;;;;;;5099909;28;20071;-59
2023/08/22 04:21:30;;;;;;;12.73;7.63;;;16.80;99.90;;;;;;5099171;28;20036;-59
2023/08/22 04:23:56;;;;;;;10.82;6.78;;;16.80;99.90;;;;;;5100281;28;20442;-59
2023/08/22 04:26:21;;;;;;;12.68;7.57;;;16.70;99.90;;;;;;5099812;28;20075;-58
2023/08/22 04:28:47;;;;;;;12.07;7.50;;;16.60;99.90;;;;;;5099191;28;20494;-59
2023/08/22 04:31:13;;;;;;;10.98;7.28;;;16.60;99.90;;;;;;5100067;28;20040;-59
2023/08/22 04:33:38;;;;;;;12.57;7.53;;;16.70;99.90;;;;;;5098689;28;20036;-57
2023/08/22 04:36:06;;;;;;;11.27;7.53;;;16.60;99.90;;;;;;5099906;28;20048;-59
2023/08/22 04:38:31;;;;;;;12.15;7.63;;;16.50;99.90;;;;;;5098854;28;20052;-59
2023/08/22 04:40:57;;;;;;;14.43;7.45;;;16.60;99.90;;;;;;5100170;28;20040;-59
2023/08/22 04:43:22;;;;;;;12.13;7.28;;;16.50;99.90;;;;;;5099385;28;20040;-60
2023/08/22 04:45:52;;;;;;;13.07;8.05;;;16.50;99.90;;;;;;5099433;28;20051;-59
2023/08/22 04:48:17;;;;;;;11.75;7.90;;;16.60;99.90;;;;;;5099639;28;20048;-59
2023/08/22 04:50:43;;;;;;;14.52;7.57;;;16.60;99.90;;;;;;5098599;28;20407;-59
2023/08/22 04:53:09;;;;;;;13.65;7.53;;;16.70;99.90;;;;;;5099801;28;20111;-59
2023/08/22 04:55:35;;;;;;;11.77;7.38;;;16.60;99.90;;;;;;5104754;28;20559;-59
2023/08/22 04:58:00;;;;;;;12.05;7.78;;;16.50;99.90;;;;;;5120180;28;20047;-59
2023/08/22 05:00:26;;;;;;;11.35;6.97;;;16.60;99.90;;;;;;5119271;28;20059;-59
2023/08/22 05:02:52;;;;;;;10.90;7.30;;;16.60;99.90;;;;;;5119580;28;20052;-59
2023/08/22 05:05:17;;;;;;;11.90;7.30;;;16.50;99.90;;;;;;5119515;28;20099;-59
2023/08/22 05:07:43;;;;;;;12.43;7.68;;;16.60;99.90;;;;;;5118472;28;20484;-60
2023/08/22 05:10:09;;;;;;;12.70;7.97;;;16.60;99.90;;;;;;5119887;28;20517;-59
2023/08/22 05:12:34;;;;;;;10.45;7.30;;;16.60;99.90;;;;;;5118678;28;20077;-59
2023/08/22 05:15:00;;;;;;;11.32;7.68;;;16.60;99.90;;;;;;5119962;28;20496;-60
2023/08/22 05:17:26;;;;;;;14.13;7.85;;;16.70;99.90;;;;;;5118992;28;20109;-59
2023/08/22 05:19:51;;;;;;;15.02;7.63;;;16.80;99.90;;;;;;5119268;28;20071;-60
2023/08/22 05:22:17;;;;;;;11.50;7.55;;;16.80;99.90;;;;;;5118197;28;20043;-60
2023/08/22 05:24:43;;;;;;;16.02;8.10;;;16.80;99.90;;;;;;5118674;28;20036;-60
2023/08/22 05:27:08;;;;;;;9.93;7.43;;;16.80;99.90;;;;;;5119540;28;20042;-60
2023/08/22 05:29:34;;;;;;;12.15;8.35;;;16.80;99.90;;;;;;5118605;28;20062;-59
2023/08/22 05:31:59;;;;;;;13.27;7.60;;;16.90;99.90;;;;;;5119725;28;20075;-59
2023/08/22 05:34:25;;;;;;;12.15;7.63;;;17.00;99.90;;;;;;5118522;28;20062;-59
2023/08/22 05:36:51;;;;;;;14.65;8.68;;;17.00;99.90;;;;;;5119653;28;20042;-59
2023/08/22 05:39:16;;;;;;;14.25;8.18;;;17.00;99.90;;;;;;5119281;28;20036;-59
2023/08/22 05:41:42;;;;;;;14.40;7.70;;;17.00;99.90;;;;;;5117456;28;20548;-59
2023/08/22 05:44:08;;;;;;;14.73;8.02;;;17.10;99.90;;;;;;5116830;28;20538;-58
2023/08/22 05:46:33;;;;;;;13.38;8.20;;;17.20;99.90;;;;;;5114266;28;20569;-58
2023/08/22 05:48:59;;;;;;;13.52;7.78;;;17.20;99.90;;;;;;5115308;28;20510;-59
2023/08/22 05:51:25;;;;;;;13.30;7.53;;;17.30;99.90;;;;;;5114656;28;20042;-58
2023/08/22 05:53:50;;;;;;;12.80;8.02;;;17.30;99.90;;;;;;5115536;28;20047;-58
2023/08/22 05:56:16;;;;;;;13.18;7.95;;;17.40;99.90;;;;;;5103164;28;20074;-58
2023/08/22 05:58:42;;;;;;;13.13;8.65;;;17.50;99.90;;;;;;5094119;28;20036;-58
2023/08/22 06:01:13;;;;;;;14.32;8.15;;;17.50;99.90;;;;;;5094887;28;20044;-59
2023/08/22 06:03:39;;;;;;;10.93;7.78;;;17.30;99.90;;;;;;5093670;28;20130;-58
2023/08/22 06:06:05;;;;;;;14.60;7.50;;;17.40;99.90;;;;;;5095388;28;20101;-59
2023/08/22 06:08:31;;;;;;;12.82;8.68;;;17.40;99.90;;;;;;5092214;28;20051;-59
2023/08/22 06:10:57;;;;;;;12.18;7.85;;;17.50;99.90;;;;;;5095078;28;20047;-59
2023/08/22 06:13:23;;;;;;;12.80;7.85;;;17.40;99.90;;;;;;5094566;28;20044;-59
2023/08/22 06:15:49;;;;;;;12.73;7.93;;;17.50;99.90;;;;;;5094424;28;20596;-59
2023/08/22 06:18:14;;;;;;;13.63;8.55;;;17.50;99.90;;;;;;5095440;28;20044;-59
2023/08/22 06:20:40;;;;;;;14.55;8.68;;;17.60;99.90;;;;;;5097107;28;20075;-58
2023/08/22 06:23:06;;;;;;;12.02;8.18;;;17.70;99.90;;;;;;5098803;28;20055;-59
2023/08/22 06:25:34;;;;;;;13.98;8.65;;;17.80;99.90;;;;;;5097256;28;20119;-58
2023/08/22 06:28:00;;;;;;;13.25;8.32;;;17.70;99.90;;;;;;5098712;28;20044;-58
2023/08/22 06:30:27;;;;;;;13.57;9.35;;;17.70;99.90;;;;;;5097893;28;20083;-58
2023/08/22 06:32:53;;;;;;;14.73;8.45;;;17.70;99.90;;;;;;5097473;28;20052;-61
2023/08/22 06:35:18;;;;;;;13.98;8.95;;;17.70;99.90;;;;;;5098270;28;20046;-59
2023/08/22 06:37:44;;;;;;;12.63;8.38;;;17.70;99.90;;;;;;5095905;28;20047;-59
2023/08/22 06:40:11;;;;;;;13.48;8.00;;;17.90;99.90;;;;;;5098166;28;20056;-60
2023/08/22 06:42:37;;;;;;;13.32;8.23;;;18.00;99.90;;;;;;5097225;28;20047;-59
2023/08/22 06:45:03;;;;;;;13.23;8.27;;;18.20;99.90;;;;;;5098079;28;20036;-59
2023/08/22 06:47:28;;;;;;;12.40;8.18;;;18.20;99.90;;;;;;5095985;28;20503;-59
2023/08/22 06:49:54;;;;;;;13.48;7.93;;;18.30;99.90;;;;;;5096116;28;20103;-58
2023/08/22 06:52:20;;;;;;;13.10;7.95;;;18.40;99.90;;;;;;5097638;28;20040;-59
2023/08/22 06:54:45;;;;;;;13.10;7.85;;;18.50;99.90;;;;;;5096784;28;20062;-59
2023/08/22 06:57:11;;;;;;;13.45;7.97;;;18.50;99.90;;;;;;5117140;28;20085;-59
2023/08/22 06:59:37;;;;;;;12.80;8.20;;;18.70;99.90;;;;;;5097971;28;20070;-60
2023/08/22 07:02:03;;;;;;;11.25;7.13;;;18.70;99.90;;;;;;5097249;28;20086;-59
2023/08/22 07:04:32;;;;;;;13.32;8.20;;;18.70;99.90;;;;;;5096784;28;20096;-59
2023/08/22 07:06:57;;;;;;;13.75;7.80;;;18.80;99.90;;;;;;5097441;28;20496;-60
2023/08/22 07:09:23;;;;;;;12.20;7.68;;;18.70;99.90;;;;;;5097328;28;20051;-58
2023/08/22 07:11:49;;;;;;;14.38;7.97;;;18.70;99.90;;;;;;5096679;28;20032;-59
2023/08/22 07:14:14;;;;;;;11.27;7.93;;;18.70;99.90;;;;;;5097582;28;20044;-59
2023/08/22 07:16:40;;;;;;;11.27;7.40;;;18.60;99.90;;;;;;5096318;28;20046;-59
2023/08/22 07:19:06;;;;;;;12.35;7.70;;;18.70;99.90;;;;;;5097434;28;20067;-59
2023/08/22 07:21:31;;;;;;;16.30;8.43;;;18.80;99.90;;;;;;5096378;28;20040;-60
2023/08/22 07:23:57;;;;;;;12.10;7.53;;;18.90;99.90;;;;;;5097344;28;20048;-59
2023/08/22 07:26:23;;;;;;;13.18;7.78;;;18.90;99.90;;;;;;5097259;28;20364;-58
2023/08/22 07:28:49;;;;;;;13.40;7.95;;;19.00;99.90;;;;;;5098648;28;20042;-59
2023/08/22 07:31:15;;;;;;;14.48;8.45;;;19.20;99.90;;;;;;5102195;28;20044;-59
2023/08/22 07:33:40;;;;;;;14.02;8.10;;;19.30;99.90;;;;;;5094335;28;20047;-59
2023/08/22 07:36:06;;;;;;;12.85;7.93;;;19.50;99.90;;;;;;5096845;28;20044;-58
2023/08/22 07:38:32;;;;;;;12.05;7.30;;;19.60;99.90;;;;;;5095505;28;20052;-59
2023/08/22 07:40:57;;;;;;;15.57;7.93;;;19.70;99.90;;;;;;5096065;28;20044;-59
2023/08/22 07:43:23;;;;;;;12.90;6.97;;;19.70;99.90;;;;;;5096702;28;20067;-58
2023/08/22 07:45:48;;;;;;;11.20;7.55;;;19.80;99.90;;;;;;5095791;28;20035;-59
2023/08/22 07:48:15;;;;;;;13.05;8.07;;;19.80;99.90;;;;;;5096466;28;20259;-58
2023/08/22 07:50:41;;;;;;;13.85;8.00;;;19.80;99.90;;;;;;5095309;28;20060;-59
2023/08/22 07:53:07;;;;;;;13.43;7.53;;;19.70;99.90;;;;;;5097063;28;20119;-59
2023/08/22 07:55:32;;;;;;;11.30;7.45;;;19.70;99.90;;;;;;5100849;28;20046;-59
2023/08/22 07:57:58;;;;;;;13.80;8.00;;;19.60;99.90;;;;;;5117194;28;20127;-59
2023/08/22 08:00:24;;;;;;;13.57;7.55;;;19.50;99.90;;;;;;5114990;28;20058;-59
2023/08/22 08:02:49;;;;;;;12.20;7.07;;;19.60;99.90;;;;;;5116401;28;20135;-59
2023/08/22 08:05:15;;;;;;;12.80;7.28;;;19.70;99.90;;;;;;5115126;28;20058;-59
2023/08/22 08:07:41;;;;;;;14.18;7.40;;;19.70;99.90;;;;;;5115376;28;20043;-59
2023/08/22 08:10:07;;;;;;;15.18;6.90;;;19.80;99.90;;;;;;5117284;28;20088;-59
2023/08/22 08:12:33;;;;;;;11.20;6.45;;;20.00;99.90;;;;;;5115624;28;20055;-59
2023/08/22 08:14:59;;;;;;;10.52;6.15;;;20.20;99.90;;;;;;5116629;28;20040;-59
2023/08/22 08:17:25;;;;;;;9.15;6.03;;;20.30;99.90;;;;;;5115928;28;20063;-59
2023/08/22 08:19:51;;;;;;;12.40;6.10;;;20.40;99.90;;;;;;5115378;28;20070;-59
2023/08/22 08:22:17;;;;;;;9.38;5.03;;;20.50;99.90;;;;;;5116484;28;20454;-59
2023/08/22 08:24:43;;;;;;;9.52;5.20;;;20.50;99.90;;;;;;5114971;28;20058;-60
2023/08/22 08:27:08;;;;;;;10.93;5.13;;;20.60;99.90;;;;;;5102067;28;20495;-59
2023/08/22 08:29:34;;;;;;;10.93;5.18;;;20.70;99.90;;;;;;5094873;28;20066;-60
2023/08/22 08:32:00;;;;;;;9.55;4.30;;;20.60;99.90;;;;;;5095877;28;20067;-59
2023/08/22 08:34:26;;;;;;;8.95;4.45;;;20.40;99.90;;;;;;5095253;28;20048;-59
2023/08/22 08:36:52;;;;;;;8.38;4.53;;;20.40;99.90;;;;;;5095991;28;20044;-59
2023/08/22 08:39:18;;;;;;;10.40;4.55;;;20.30;99.90;;;;;;5105772;28;20437;-59
2023/08/22 08:42:05;;;;;;;10.88;4.50;;;20.30;99.90;;;;;;5102681;28;20798;-59
2023/08/22 08:44:34;;;;;;;8.52;4.15;;;20.20;99.90;;;;;;5101263;28;20044;-59
2023/08/22 08:47:00;;;;;;;9.43;4.57;;;20.20;99.90;;;;;;5103319;28;20028;-59
2023/08/22 08:49:25;;;;;;;10.88;4.50;;;20.40;99.90;;;;;;5103985;28;20112;-59
2023/08/22 08:51:52;;;;;;;8.40;4.40;;;20.60;99.90;;;;;;5094417;28;20090;-60
2023/08/22 08:54:22;;;;;;;8.93;4.10;;;20.70;99.90;;;;;;5097675;28;20471;-59
2023/08/22 08:56:48;;;;;;;8.82;4.45;;;20.80;99.90;;;;;;5103485;28;20036;-60
2023/08/22 08:59:14;;;;;;;9.43;4.65;;;20.80;99.90;;;;;;5096985;28;20131;-58
2023/08/22 09:01:45;;;;;;;11.73;4.68;;;20.70;99.90;;;;;;5098780;28;20078;-59
2023/08/22 09:04:10;;;;;;;9.35;5.00;;;20.70;99.90;;;;;;5098469;28;20650;-60
2023/08/22 09:06:37;;;;;;;9.75;4.35;;;20.70;99.90;;;;;;5099498;28;20047;-59
2023/08/22 09:09:07;;;;;;;9.45;4.38;;;20.60;99.90;;;;;;5098896;28;20044;-58
2023/08/22 09:11:33;;;;;;;8.18;3.92;;;20.70;99.90;;;;;;5098769;28;20044;-59
2023/08/22 09:13:59;;;;;;;10.32;5.20;;;20.70;99.90;;;;;;5098179;28;20086;-59
2023/08/22 09:16:26;;;;;;;8.93;4.70;;;20.80;99.90;;;;;;5098207;28;20041;-60
2023/08/22 09:18:56;;;;;;;9.05;4.32;;;20.90;99.90;;;;;;5099098;28;20039;-59
2023/08/22 09:21:22;;;;;;;9.55;5.05;;;21.00;99.90;;;;;;5097982;28;20043;-59
2023/08/22 09:23:49;;;;;;;9.20;4.90;;;21.10;99.90;;;;;;5099053;28;20063;-59
2023/08/22 09:26:23;;;;;;;9.07;5.00;;;21.10;98.10;;;;;;5098515;28;20055;-59
2023/08/22 09:28:49;;;;;;;8.50;4.30;;;21.20;99.90;;;;;;5096930;28;20032;-59
2023/08/22 09:31:22;;;;;;;8.93;4.78;;;21.50;99.90;;;;;;5098992;28;20118;-59
2023/08/22 09:33:48;;;;;;;10.95;4.88;;;21.80;99.90;;;;;;5098189;28;20047;-60
2023/08/22 09:36:21;;;;;;;8.65;4.53;;;21.90;97.50;;;;;;5098339;28;20040;-59
2023/08/22 09:38:57;;;;;;;11.27;5.13;;;22.00;97.50;;;;;;5097382;28;20048;-60
2023/08/22 09:41:27;;;;;;;10.55;5.60;;;21.90;95.80;;;;;;5098676;28;20711;-58
2023/08/22 09:43:55;;;;;;;12.25;5.75;;;22.00;95.30;;;;;;5097761;28;20055;-60
2023/08/22 09:46:23;;;;;;;12.65;5.53;;;21.80;94.50;;;;;;5096850;28;20040;-59
2023/08/22 09:48:50;;;;;;;12.70;5.53;;;21.90;95.60;;;;;;5098607;28;20047;-59
2023/08/22 09:51:20;;;;;;;12.70;5.32;;;21.90;96.40;;;;;;5097735;28;20040;-57
2023/08/22 09:53:59;;;;;;;10.25;5.85;;;22.10;96.50;;;;;;5102591;28;20075;-60
2023/08/22 09:56:25;;;;;;;10.35;5.20;;;22.10;93.60;;;;;;5102711;28;20039;-60
2023/08/22 09:58:52;;;;;;;13.43;5.20;;;22.20;97.00;;;;;;5101946;28;20050;-60
2023/08/22 10:01:19;;;;;;;10.40;5.05;;;22.40;95.60;;;;;;5103793;28;20048;-59
2023/08/22 10:03:47;;;;;;;9.07;5.13;;;22.40;91.90;;;;;;5111506;28;20093;-59
2023/08/22 10:06:14;;;;;;;10.13;6.38;;;22.60;93.80;;;;;;5104536;28;20048;-59
2023/08/22 10:08:45;;;;;;;17.85;6.13;;;22.50;92.20;;;;;;5122147;28;20092;-59
2023/08/22 10:11:17;;;;;;;11.75;5.22;;;22.50;91.50;;;;;;5122795;27;20443;-56
2023/08/22 10:13:44;;;;;;;11.00;5.93;;;22.70;92.50;;;;;;5122828;28;20162;-59
2023/08/22 10:16:10;;;;;;;11.68;5.47;;;22.70;91.10;;;;;;5122034;28;20032;-59
2023/08/22 10:18:36;;;;;;;12.75;5.88;;;22.90;89.30;;;;;;5122586;28;20051;-58
2023/08/22 10:21:05;;;;;;;13.40;5.90;;;23.10;91.10;;;;;;5121897;28;20047;-59
2023/08/22 10:23:51;;;;;;;10.63;4.97;;;23.00;86.70;;;;;;5122809;28;20048;-59
2023/08/22 10:26:28;;;;;;;9.57;5.15;;;23.10;85.90;;;;;;5122450;28;20039;-59
2023/08/22 10:29:14;;;;;;;8.50;4.88;;;23.30;85.20;;;;;;5119820;28;20085;-59
2023/08/22 10:32:01;;;;;;;8.35;5.22;;;23.40;83.90;;;;;;5122165;28;20101;-59
2023/08/22 10:34:40;;;;;;;10.15;5.32;;;23.40;75.70;;;;;;5120425;28;20043;-59
2023/08/22 10:37:25;;;;;;;9.55;4.57;;;23.50;72.00;;;;;;5121632;28;20573;-59
2023/08/22 10:39:51;;;;;;;8.93;4.05;;;23.50;71.10;;;;;;5122877;28;20057;-59
2023/08/22 10:42:23;;;;;;;8.40;3.72;;;23.60;69.90;;;;;;5121091;28;20084;-59
2023/08/22 10:44:50;;;;;;;8.77;3.08;;;23.70;66.30;;;;;;5121800;28;20050;-59
2023/08/22 10:47:17;;;;;;;7.50;3.40;;;23.80;55.40;;;;;;5121462;28;20051;-59
2023/08/22 10:49:43;;;;;;;10.43;4.55;;;23.60;59.10;;;;;;5121706;28;20044;-59
2023/08/22 10:52:13;;;;;;;8.07;3.42;;;23.50;62.50;;;;;;5109938;28;20118;-59
2023/08/22 10:54:57;;;;;;;9.27;3.20;;;23.60;56.10;;;;;;5100828;28;20538;-59
2023/08/22 10:57:24;;;;;;;8.10;2.95;;;23.40;55.00;;;;;;5081208;28;20051;-60
2023/08/22 10:59:59;;;;;;;6.13;2.55;;;23.60;52.80;;;;;;5080125;28;20546;-59
2023/08/22 11:02:29;;;;;;;6.45;2.15;;;23.90;43.10;;;;;;5081128;28;20056;-59
2023/08/22 11:05:00;;;;;;;7.30;2.42;;;24.00;33.50;;;;;;5080562;28;20044;-59
2023/08/22 11:07:27;;;;;;;6.05;2.30;;;24.10;38.80;;;;;;5080322;28;20044;-59
2023/08/22 11:09:58;;;;;;;8.40;2.50;;;24.20;38.40;;;;;;5081112;28;20215;-60
2023/08/22 11:12:27;;;;;;;8.00;2.95;;;24.40;41.30;;;;;;5079655;28;20373;-59
2023/08/22 11:14:54;;;;;;;6.03;2.33;;;24.40;34.10;;;;;;5080839;28;20036;-59
2023/08/22 11:17:21;;;;;;;7.57;2.45;;;24.50;41.00;;;;;;5080513;28;20042;-59
2023/08/22 11:19:48;;;;;;;6.28;2.20;;;24.50;34.80;;;;;;5079925;28;20120;-60
2023/08/22 11:22:14;;;;;;;7.07;2.30;;;24.40;37.50;;;;;;5079503;28;20135;-59
2023/08/22 11:24:49;;;;;;;6.90;2.10;;;23.90;33.30;;;;;;5079684;28;20052;-60
2023/08/22 11:27:15;;;;;;;6.80;2.70;;;24.20;36.10;;;;;;5079039;28;20052;-60
2023/08/22 11:29:49;;;;;;;7.55;2.67;;;24.20;38.60;;;;;;5079609;28;20048;-59
2023/08/22 11:32:20;;;;;;;6.00;1.92;;;24.30;34.70;;;;;;5080881;28;20040;-59
2023/08/22 11:34:46;;;;;;;6.93;2.10;;;24.20;31.50;;;;;;5080434;28;20338;-59
2023/08/22 11:37:12;;;;;;;6.00;2.55;;;24.70;38.30;;;;;;5079991;28;20044;-59
2023/08/22 11:39:38;;;;;;;7.03;3.05;;;24.30;28.40;;;;;;5079228;28;20518;-59
2023/08/22 11:42:04;;;;;;;7.22;2.60;;;24.10;29.10;;;;;;5079660;28;20064;-60
2023/08/22 11:44:30;;;;;;;5.90;1.95;;;24.10;25.80;;;;;;5080331;28;20052;-59
2023/08/22 11:46:56;;;;;;;7.38;2.75;;;24.20;19.80;;;;;;5077488;28;20047;-59
2023/08/22 11:49:22;;;;;;;9.38;3.40;;;24.40;30.80;;;;;;5078763;28;20052;-59
2023/08/22 11:51:53;;;;;;;7.50;3.30;;;24.30;33.60;;;;;;5079913;28;20087;-59
2023/08/22 11:54:24;;;;;;;6.43;2.95;;;24.10;30.20;;;;;;5079469;28;20050;-60
2023/08/22 11:56:50;;;;;;;7.15;3.05;;;24.20;28.60;;;;;;5113337;28;20051;-61
2023/08/22 11:59:15;;;;;;;9.20;3.60;;;23.90;26.30;;;;;;5119567;28;20062;-60
2023/08/22 12:01:41;;;;;;;7.25;2.92;;;23.60;23.00;;;;;;5118590;28;20051;-60
2023/08/22 12:04:07;;;;;;;9.43;3.60;;;23.80;28.60;;;;;;5119338;28;20509;-59
2023/08/22 12:06:32;;;;;;;9.80;3.88;;;23.60;26.70;;;;;;5120965;28;20040;-59
2023/08/22 12:09:01;;;;;;;8.45;3.72;;;23.80;28.20;;;;;;5120255;27;20096;-59
2023/08/22 12:11:28;;;;;;;8.77;4.32;;;23.60;29.10;;;;;;5120128;28;20074;-59
2023/08/22 12:13:54;;;;;;;9.38;4.78;;;23.80;34.20;;;;;;5119767;28;20068;-59
2023/08/22 12:16:20;;;;;;;8.43;4.72;;;23.60;33.00;;;;;;5118378;28;20036;-59
2023/08/22 12:18:45;;;;;;;8.85;4.03;;;23.40;39.60;;;;;;5118210;28;20341;-59
2023/08/22 12:21:11;;;;;;;9.20;4.50;;;23.60;39.70;;;;;;5119266;28;20047;-59
2023/08/22 12:23:37;;;;;;;10.13;4.32;;;23.60;38.20;;;;;;5120338;28;20076;-59
2023/08/22 12:26:03;;;;;;;10.02;4.88;;;23.50;30.10;;;;;;5120151;28;20032;-59
2023/08/22 12:28:28;;;;;;;8.57;4.05;;;23.90;33.60;;;;;;5119401;28;20502;-59
2023/08/22 12:30:54;;;;;;;9.90;3.88;;;24.20;32.60;;;;;;5100685;28;20040;-59
2023/08/22 12:33:20;;;;;;;6.97;3.55;;;23.90;22.50;;;;;;5098705;28;20058;-59
2023/08/22 12:35:45;;;;;;;10.70;3.88;;;23.60;19.60;;;;;;5106491;28;20085;-59